Time;durP1;ratioP1;P1;durP2;ratioP2;P2;SDS_P1;SDS_P2;PMS_P1;PMS_P2;Temp;Humidity;BMP_temperature;BMP_pressure;BME280_temperature;BME280_humidity;BME280_pressure;Samples;Min_cycle;Max_cycle;Signal;HPM_P1;HPM_P2
2021/10/28 00:13:07;;;;;;;;;;;13.90;99.90;;;;;;4941017;29;19986;-70
2021/10/28 00:15:37;;;;;;;;;;;13.90;99.90;;;;;;4941124;29;19926;-70
2021/10/28 00:18:13;;;;;;;;;;;13.90;99.90;;;;;;4940842;29;19934;-71
2021/10/28 00:20:40;;;;;;;;;;;13.80;99.90;;;;;;4940742;29;19969;-69
2021/10/28 00:23:07;;;;;;;;;;;13.80;99.90;;;;;;4940914;29;19937;-69
2021/10/28 00:25:34;;;;;;;;;;;13.80;99.90;;;;;;4940440;29;20259;-69
2021/10/28 00:28:01;;;;;;;;;;;13.80;99.90;;;;;;4940627;29;19937;-69
2021/10/28 00:30:28;;;;;;;;;;;13.80;99.90;;;;;;4940640;29;20021;-69
2021/10/28 00:32:57;;;;;;;;;;;13.80;99.90;;;;;;4940424;29;19931;-70
2021/10/28 00:35:24;;;;;;;;;;;13.70;99.90;;;;;;4940412;29;20340;-70
2021/10/28 00:37:50;;;;;;;;;;;13.70;99.90;;;;;;4940234;29;19927;-70
2021/10/28 00:40:17;;;;;;;;;;;13.70;99.90;;;;;;4940179;29;19927;-70
2021/10/28 00:42:44;;;;;;;;;;;13.70;99.90;;;;;;4940439;29;19927;-70
2021/10/28 00:45:12;;;;;;;;;;;13.70;99.90;;;;;;4940376;29;19933;-69
2021/10/28 00:47:40;;;;;;;;;;;13.70;99.90;;;;;;4940224;29;20325;-70
2021/10/28 00:50:08;;;;;;;;;;;13.70;99.90;;;;;;4940169;29;20311;-69
2021/10/28 00:52:35;;;;;;;;;;;13.60;99.90;;;;;;4940141;29;19937;-69
2021/10/28 00:55:02;;;;;;;;;;;13.60;99.90;;;;;;4939281;29;19927;-70
2021/10/28 00:57:29;;;;;;;;;;;13.60;99.90;;;;;;4939969;29;19927;-70
2021/10/28 00:59:56;;;;;;;;;;;13.60;99.90;;;;;;4940045;29;19926;-70
2021/10/28 01:02:25;;;;;;;;;;;13.60;99.90;;;;;;4939340;29;20202;-70
2021/10/28 01:04:52;;;;;;;;;;;13.60;99.90;;;;;;4939966;29;20275;-72
2021/10/28 01:07:20;;;;;;;;;;;13.60;99.90;;;;;;4939655;29;19927;-72
2021/10/28 01:09:47;;;;;;;;;;;13.60;99.90;;;;;;4939808;29;20378;-72
2021/10/28 01:12:14;;;;;;;;;;;13.50;99.90;;;;;;4939834;29;19937;-72
2021/10/28 01:14:41;;;;;;;;;;;13.50;99.90;;;;;;4939647;29;19927;-72
2021/10/28 01:17:08;;;;;;;;;;;13.50;99.90;;;;;;4939769;29;19937;-72
2021/10/28 01:19:35;;;;;;;;;;;13.50;99.90;;;;;;4939674;29;19936;-72
2021/10/28 01:22:04;;;;;;;;;;;13.50;99.90;;;;;;4939548;29;19927;-72
2021/10/28 01:24:30;;;;;;;;;;;13.50;99.90;;;;;;4939711;29;19926;-73
2021/10/28 01:27:01;;;;;;;;;;;13.50;99.90;;;;;;4939219;29;20308;-72
2021/10/28 01:29:28;;;;;;;;;;;13.50;99.90;;;;;;4939451;29;20031;-74
2021/10/28 01:31:55;;;;;;;;;;;13.50;99.90;;;;;;4939320;29;19933;-73
2021/10/28 01:34:22;;;;;;;;;;;13.40;99.90;;;;;;4939264;29;19926;-71
2021/10/28 01:36:49;;;;;;;;;;;13.50;99.90;;;;;;4939300;29;19938;-70
2021/10/28 01:39:17;;;;;;;;;;;13.50;99.90;;;;;;4939349;29;19927;-70
2021/10/28 01:41:44;;;;;;;;;;;13.40;99.90;;;;;;4939151;29;19941;-70
2021/10/28 01:44:11;;;;;;;;;;;13.40;99.90;;;;;;4939200;29;19937;-70
2021/10/28 01:46:38;;;;;;;;;;;13.40;99.90;;;;;;4939205;29;19937;-72
2021/10/28 01:49:05;;;;;;;;;;;13.40;99.90;;;;;;4939389;29;20283;-72
2021/10/28 01:51:31;;;;;;;;;;;13.40;99.90;;;;;;4938908;29;19946;-72
2021/10/28 01:53:58;;;;;;;;;;;13.40;99.90;;;;;;4938989;29;19927;-72
2021/10/28 01:56:27;;;;;;;;;;;13.50;99.90;;;;;;4938961;29;19926;-72
2021/10/28 01:58:53;;;;;;;;;;;13.50;99.90;;;;;;4938975;29;20179;-77
2021/10/28 02:01:20;;;;;;;;;;;13.50;99.90;;;;;;4938824;29;20364;-72
2021/10/28 02:03:47;;;;;;;;;;;13.50;99.90;;;;;;4938992;29;19935;-72
2021/10/28 02:06:14;;;;;;;;;;;13.50;99.90;;;;;;4938652;29;19930;-70
2021/10/28 02:08:41;;;;;;;;;;;13.50;99.90;;;;;;4938888;29;19927;-72
2021/10/28 02:11:07;;;;;;;;;;;13.50;99.90;;;;;;4938699;29;20344;-72
2021/10/28 02:13:36;;;;;;;;;;;13.50;99.90;;;;;;4938512;29;19931;-72
2021/10/28 02:16:03;;;;;;;;;;;13.50;99.90;;;;;;4938475;29;19927;-72
2021/10/28 02:18:30;;;;;;;;;;;13.50;99.90;;;;;;4938831;29;19926;-72
2021/10/28 02:20:57;;;;;;;;;;;13.50;99.90;;;;;;4938702;29;19926;-72
2021/10/28 02:23:23;;;;;;;;;;;13.50;99.90;;;;;;4938603;29;20272;-72
2021/10/28 02:25:50;;;;;;;;;;;13.50;99.90;;;;;;4938345;29;20363;-69
2021/10/28 02:28:17;;;;;;;;;;;13.60;99.90;;;;;;4938562;29;19927;-70
2021/10/28 02:30:45;;;;;;;;;;;13.60;99.90;;;;;;4938318;29;19952;-70
2021/10/28 02:33:13;;;;;;;;;;;13.60;99.90;;;;;;4938045;29;19927;-70
2021/10/28 02:35:40;;;;;;;;;;;13.60;99.90;;;;;;4938274;29;19927;-70
2021/10/28 02:38:07;;;;;;;;;;;13.60;99.90;;;;;;4938314;29;19927;-69
2021/10/28 02:40:33;;;;;;;;;;;13.70;99.90;;;;;;4938212;29;19926;-69
2021/10/28 02:43:01;;;;;;;;;;;13.70;99.90;;;;;;4938021;29;20365;-69
2021/10/28 02:45:28;;;;;;;;;;;13.70;99.90;;;;;;4938077;29;19931;-70
2021/10/28 02:47:56;;;;;;;;;;;13.70;99.90;;;;;;4937275;29;19941;-69
2021/10/28 02:50:23;;;;;;;;;;;13.70;99.90;;;;;;4937998;29;19937;-69
2021/10/28 02:52:50;;;;;;;;;;;13.70;99.90;;;;;;4938245;29;19927;-69
2021/10/28 02:55:17;;;;;;;;;;;13.70;99.90;;;;;;4937958;29;19981;-69
2021/10/28 02:57:43;;;;;;;;;;;13.60;99.90;;;;;;4938070;29;19953;-72
2021/10/28 03:00:11;;;;;;;;;;;13.70;99.90;;;;;;4937871;29;20373;-70
2021/10/28 03:02:37;;;;;;;;;;;13.70;99.90;;;;;;4937792;29;19937;-69
2021/10/28 03:05:06;;;;;;;;;;;13.70;99.90;;;;;;4937916;29;19931;-69
2021/10/28 03:07:34;;;;;;;;;;;13.70;99.90;;;;;;4937933;29;19926;-69
2021/10/28 03:10:02;;;;;;;;;;;13.70;99.90;;;;;;4937951;29;19933;-69
2021/10/28 03:12:29;;;;;;;;;;;13.70;99.90;;;;;;4937909;29;20236;-69
2021/10/28 03:14:58;;;;;;;;;;;13.70;99.90;;;;;;4937957;29;19990;-70
2021/10/28 03:17:32;;;;;;;;;;;13.70;99.90;;;;;;4937709;29;19927;-69
2021/10/28 03:25:42;;;;;;;;;;;13.70;99.90;;;;;;4944178;29;20312;-69
2021/10/28 03:28:12;;;;;;;;;;;13.80;99.90;;;;;;4944205;29;19934;-69
2021/10/28 03:30:39;;;;;;;;;;;13.80;99.90;;;;;;4944121;29;19927;-69
2021/10/28 03:33:08;;;;;;;;;;;13.80;99.90;;;;;;4943911;29;20263;-70
2021/10/28 03:35:35;;;;;;;;;;;13.80;99.90;;;;;;4943974;29;19970;-69
2021/10/28 03:38:09;;;;;;;;;;;13.80;99.90;;;;;;4943943;29;19927;-69
2021/10/28 03:43:33;;;;;;;;;;;13.70;99.90;;;;;;4943854;29;19974;-69
2021/10/28 04:17:16;;;;;;;;;;;13.80;99.90;;;;;;4808899;29;19936;-72
2021/10/28 04:30:41;;;;;;;;;;;13.80;99.90;;;;;;4882213;29;20429;-72
2021/10/28 04:33:07;;;;;;;;;;;13.80;99.90;;;;;;4882049;29;19928;-72
2021/10/28 04:35:34;;;;;;;;;;;13.80;99.90;;;;;;4903998;29;19938;-72
2021/10/28 04:38:01;;;;;;;;;;;13.70;99.90;;;;;;4940428;29;19927;-72
2021/10/28 04:40:28;;;;;;;;;;;13.80;99.90;;;;;;4940624;29;19931;-72
2021/10/28 04:42:55;;;;;;;;;;;13.80;99.90;;;;;;4940311;29;20378;-72
2021/10/28 04:45:23;;;;;;;;;;;13.80;99.90;;;;;;4940261;29;19927;-72
2021/10/28 04:47:50;;;;;;;;;;;13.80;99.90;;;;;;4940127;29;20248;-72
2021/10/28 04:50:17;;;;;;;;;;;13.80;99.90;;;;;;4940320;29;20426;-72
2021/10/28 04:52:43;;;;;;;;;;;13.80;99.90;;;;;;4939981;29;19927;-72
2021/10/28 04:55:10;;;;;;;;;;;13.80;99.90;;;;;;4940306;29;19927;-72
2021/10/28 04:57:37;;;;;;;;;;;13.80;99.90;;;;;;4940217;29;19927;-72
2021/10/28 05:00:05;;;;;;;;;;;13.80;99.90;;;;;;4940046;29;20363;-70
2021/10/28 05:02:33;;;;;;;;;;;13.80;99.90;;;;;;4939939;29;20221;-72
2021/10/28 05:05:00;;;;;;;;;;;13.80;99.90;;;;;;4940009;29;20255;-72
2021/10/28 05:07:27;;;;;;;;;;;13.80;99.90;;;;;;4939691;29;19930;-72
2021/10/28 05:09:54;;;;;;;;;;;13.80;99.90;;;;;;4939958;29;19990;-72
2021/10/28 05:12:21;;;;;;;;;;;13.80;99.90;;;;;;4939774;29;20374;-70
2021/10/28 05:14:47;;;;;;;;;;;13.80;99.90;;;;;;4939436;29;19927;-69
2021/10/28 05:17:14;;;;;;;;;;;13.80;99.90;;;;;;4939811;29;19938;-69
2021/10/28 05:19:44;;;;;;;;;;;13.80;99.90;;;;;;4938923;29;20025;-69
2021/10/28 05:22:11;;;;;;;;;;;13.70;99.90;;;;;;4939510;29;19942;-72
2021/10/28 05:24:38;;;;;;;;;;;13.70;99.90;;;;;;4939510;29;20255;-72
2021/10/28 05:27:05;;;;;;;;;;;13.70;99.90;;;;;;4939631;29;19937;-72
2021/10/28 05:29:32;;;;;;;;;;;13.70;99.90;;;;;;4939455;29;19937;-72
2021/10/28 05:31:58;;;;;;;;;;;13.70;99.90;;;;;;4939248;29;20275;-72
2021/10/28 05:34:25;;;;;;;;;;;13.70;99.90;;;;;;4939068;29;20343;-72
2021/10/28 05:36:54;;;;;;;;;;;13.70;99.90;;;;;;4939273;29;19937;-72
2021/10/28 05:39:21;;;;;;;;;;;13.70;99.90;;;;;;4939264;29;20249;-72
2021/10/28 05:41:48;;;;;;;;;;;13.70;99.90;;;;;;4938873;29;19937;-72
2021/10/28 05:44:15;;;;;;;;;;;13.70;99.90;;;;;;4939157;29;19927;-72
2021/10/28 05:46:41;;;;;;;;;;;13.70;99.90;;;;;;4939014;29;19994;-72
2021/10/28 05:49:08;;;;;;;;;;;13.70;99.90;;;;;;4938992;29;19927;-71
2021/10/28 05:51:37;;;;;;;;;;;13.60;99.90;;;;;;4939051;29;19926;-72
2021/10/28 05:54:05;;;;;;;;;;;13.60;99.90;;;;;;4939262;29;19938;-72
2021/10/28 05:56:32;;;;;;;;;;;13.60;99.90;;;;;;4939009;29;19937;-72
2021/10/28 05:58:59;;;;;;;;;;;13.60;99.90;;;;;;4939166;29;19928;-72
2021/10/28 06:01:26;;;;;;;;;;;13.60;99.90;;;;;;4938935;29;19937;-72
2021/10/28 06:03:53;;;;;;;;;;;13.60;99.90;;;;;;4938966;29;20358;-72
2021/10/28 06:06:19;;;;;;;;;;;13.60;99.90;;;;;;4938963;29;19935;-72
2021/10/28 06:08:46;;;;;;;;;;;13.60;99.90;;;;;;4938751;29;20267;-72
2021/10/28 06:11:16;;;;;;;;;;;13.60;99.90;;;;;;4938627;29;19930;-72
2021/10/28 06:13:44;;;;;;;;;;;13.60;99.90;;;;;;4938676;29;19974;-72
2021/10/28 06:16:11;;;;;;;;;;;13.60;99.90;;;;;;4938701;29;20358;-72
2021/10/28 06:18:41;;;;;;;;;;;13.60;99.90;;;;;;4938548;29;19942;-72
2021/10/28 06:21:08;;;;;;;;;;;13.70;99.90;;;;;;4938743;29;19937;-72
2021/10/28 06:23:34;;;;;;;;;;;13.60;99.90;;;;;;4938670;29;19927;-72
2021/10/28 06:26:01;;;;;;;;;;;13.60;99.90;;;;;;4938481;29;20347;-72
2021/10/28 06:28:30;;;;;;;;;;;13.60;99.90;;;;;;4938548;29;19978;-72
2021/10/28 06:30:57;;;;;;;;;;;13.50;99.90;;;;;;4938364;29;19937;-72
2021/10/28 06:33:25;;;;;;;;;;;13.50;99.90;;;;;;4938110;29;19949;-72
2021/10/28 06:35:52;;;;;;;;;;;13.50;99.90;;;;;;4938302;29;19927;-72
2021/10/28 06:38:19;;;;;;;;;;;13.60;99.90;;;;;;4938437;29;19926;-72
2021/10/28 06:40:46;;;;;;;;;;;13.50;99.90;;;;;;4938412;29;20335;-72
2021/10/28 06:43:13;;;;;;;;;;;13.60;99.90;;;;;;4938149;29;19939;-72
2021/10/28 06:45:41;;;;;;;;;;;13.50;99.90;;;;;;4938210;29;19927;-72
2021/10/28 06:48:08;;;;;;;;;;;13.50;99.90;;;;;;4937884;29;20021;-72
2021/10/28 06:50:42;;;;;;;;;;;13.50;99.90;;;;;;4938373;29;19937;-72
2021/10/28 06:53:20;;;;;;;;;;;13.50;99.90;;;;;;4937510;29;20010;-72
2021/10/28 06:55:53;;;;;;;;;;;13.50;99.90;;;;;;4937876;29;19926;-72
2021/10/28 07:03:50;;;;;;;;;;;13.60;99.90;;;;;;4938065;29;19937;-72
2021/10/28 07:06:20;;;;;;;;;;;13.60;99.90;;;;;;4937806;29;19970;-72
2021/10/28 07:08:49;;;;;;;;;;;13.60;99.90;;;;;;4937720;29;19926;-72
2021/10/28 07:11:19;;;;;;;;;;;13.70;99.90;;;;;;4938079;29;20004;-72
2021/10/28 07:13:47;;;;;;;;;;;13.70;99.90;;;;;;4937802;29;19951;-72
2021/10/28 07:16:25;;;;;;;;;;;13.70;99.90;;;;;;4937810;29;20249;-72
2021/10/28 07:18:58;;;;;;;;;;;13.80;99.90;;;;;;4937845;29;19927;-72
2021/10/28 07:21:38;;;;;;;;;;;13.90;99.90;;;;;;4937753;29;19934;-72
2021/10/28 07:27:18;;;;;;;;;;;13.90;99.90;;;;;;4937817;29;19923;-72
2021/10/28 07:38:34;;;;;;;;;;;14.00;99.90;;;;;;4918567;29;20348;-72
2021/10/28 08:14:36;;;;;;;;;;;14.40;99.90;;;;;;4791422;29;19937;-69
2021/10/28 08:19:48;;;;;;;;;;;14.50;99.90;;;;;;4791043;29;20377;-71
2021/10/28 08:22:21;;;;;;;;;;;14.50;99.90;;;;;;4790962;30;20308;-72
2021/10/28 08:30:19;;;;;;;;;;;14.50;99.90;;;;;;4845329;29;19948;-71
2021/10/28 08:32:46;;;;;;;;;;;14.60;99.90;;;;;;4848939;29;19932;-70
2021/10/28 08:35:13;;;;;;;;;;;14.60;99.90;;;;;;4882393;29;20361;-70
2021/10/28 08:37:45;;;;;;;;;;;14.60;99.90;;;;;;4943778;29;20327;-71
2021/10/28 08:40:14;;;;;;;;;;;14.60;99.90;;;;;;4959562;28;19934;-70
2021/10/28 08:42:41;;;;;;;;;;;14.60;99.90;;;;;;4959424;29;20021;-69
2021/10/28 08:45:11;;;;;;;;;;;14.60;99.90;;;;;;4959501;28;19993;-71
2021/10/28 08:47:44;;;;;;;;;;;14.60;99.90;;;;;;4959623;29;19931;-71
2021/10/28 08:50:13;;;;;;;;;;;14.60;99.90;;;;;;4959401;29;20258;-69
2021/10/28 08:53:09;;;;;;;;;;;14.60;99.90;;;;;;4959322;29;19988;-69
2021/10/28 08:55:37;;;;;;;;;;;14.70;99.90;;;;;;4959364;29;19937;-70
2021/10/28 09:25:56;;;;;;;;;;;14.70;99.90;;;;;;4900307;29;19934;-71
2021/10/28 09:28:26;;;;;;;;;;;14.70;99.90;;;;;;4900010;29;19938;-71
2021/10/28 09:30:57;;;;;;;;;;;14.70;99.90;;;;;;4900004;29;19927;-72
2021/10/28 09:33:31;;;;;;;;;;;14.70;99.90;;;;;;4901532;29;19991;-72
2021/10/28 09:36:13;;;;;;;;;;;14.70;99.90;;;;;;4958292;29;19930;-71
2021/10/28 09:44:40;;;;;;;;;;;14.70;99.90;;;;;;4958879;28;19937;-71
2021/10/28 09:47:20;;;;;;;;;;;14.70;99.90;;;;;;4958781;28;19938;-71
2021/10/28 09:50:03;;;;;;;;;;;14.70;99.90;;;;;;4958331;28;19977;-72
2021/10/28 09:52:33;;;;;;;;;;;14.70;99.90;;;;;;4958252;29;20303;-71
2021/10/28 09:57:47;;;;;;;;;;;14.70;99.90;;;;;;4958344;29;19940;-71
2021/10/28 09:58:04;;;;;;;;;;;14.70;99.90;;;;;;4958359;29;19927;-72
2021/10/28 10:00:34;;;;;;;;;;;14.60;99.90;;;;;;4958111;29;19927;-72
2021/10/28 10:03:08;;;;;;;;;;;14.60;99.90;;;;;;4958029;28;19974;-71
2021/10/28 10:05:35;;;;;;;;;;;14.60;99.90;;;;;;4958076;29;19926;-71
2021/10/28 10:08:06;;;;;;;;;;;14.60;99.90;;;;;;4957941;29;19984;-71
2021/10/28 10:10:33;;;;;;;;;;;14.60;99.90;;;;;;4957976;29;20134;-71
2021/10/28 10:13:01;;;;;;;;;;;14.60;99.90;;;;;;4958072;29;19926;-72
2021/10/28 10:15:29;;;;;;;;;;;14.60;99.90;;;;;;4957814;29;19977;-69
2021/10/28 10:17:57;;;;;;;;;;;14.70;99.90;;;;;;4957977;28;19937;-72
2021/10/28 10:20:31;;;;;;;;;;;14.70;99.90;;;;;;4957835;28;19926;-71
2021/10/28 10:23:15;;;;;;;;;;;14.80;99.90;;;;;;4957672;29;19926;-69
2021/10/28 10:25:51;;;;;;;;;;;14.90;99.90;;;;;;4957721;29;19927;-71
2021/10/28 11:03:24;;;;;;;;;;;15.40;99.90;;;;;;4824780;29;19935;-71
2021/10/28 11:06:19;;;;;;;;;;;15.40;99.90;;;;;;4824709;29;20370;-71
2021/10/28 11:26:31;;;;;;;;;;;15.30;99.90;;;;;;4878609;29;19996;-71
2021/10/28 11:32:22;;;;;;;;;;;15.30;99.90;;;;;;4956678;29;20055;-71
2021/10/28 12:20:09;;;;;;;;;;;15.70;99.90;;;;;;5133882;27;19912;-69
2021/10/28 12:25:37;;;;;;;;;;;15.80;99.90;;;;;;5133666;27;19927;-71
2021/10/28 12:28:27;;;;;;;;;;;15.80;99.90;;;;;;5133517;27;20324;-71
2021/10/28 12:45:29;;;;;;;;;;;15.60;99.90;;;;;;5111052;28;19994;-71
2021/10/28 12:48:10;;;;;;;;;;;15.60;99.90;;;;;;5110735;28;19924;-71
2021/10/28 12:50:50;;;;;;;;;;;15.60;99.90;;;;;;5110877;28;19928;-71
2021/10/28 13:35:37;;;;;;;;;;;15.60;99.90;;;;;;5098056;28;19973;-69
2021/10/28 13:38:23;;;;;;;;;;;15.60;99.90;;;;;;5097788;27;19931;-71
2021/10/28 13:49:07;;;;;;;;;;;15.60;99.90;;;;;;5097964;28;20000;-71
2021/10/28 14:22:28;;;;;;;;;;;15.30;99.90;;;;;;5055254;28;19920;-71
2021/10/28 14:39:11;;;;;;;;;;;15.40;99.90;;;;;;5080352;28;19924;-71
2021/10/28 14:59:11;;;;;;;;;;;15.20;99.90;;;;;;5054508;28;19935;-71
2021/10/28 15:28:59;;;;;;;;;;;15.00;99.90;;;;;;5095813;28;19931;-71
2021/10/28 15:36:57;;;;;;;;;;;15.00;99.90;;;;;;5095656;28;19931;-71
2021/10/28 15:39:32;;;;;;;;;;;15.00;99.90;;;;;;5095889;28;19928;-71
2021/10/28 15:42:35;;;;;;;;;;;15.00;99.90;;;;;;5095239;28;20268;-71
2021/10/28 16:24:11;;;;;;;;;;;14.20;99.90;;;;;;4874841;29;19931;-71
2021/10/28 16:26:38;;;;;;;;;;;14.00;99.90;;;;;;4897643;29;19934;-70
2021/10/28 16:29:08;;;;;;;;;;;14.00;99.90;;;;;;4955203;29;19934;-70
2021/10/28 16:31:35;;;;;;;;;;;14.00;99.90;;;;;;4991508;28;19925;-70
2021/10/28 16:34:02;;;;;;;;;;;13.90;99.90;;;;;;5022761;28;20016;-70
2021/10/28 16:36:29;;;;;;;;;;;13.90;99.90;;;;;;5033213;28;19955;-70
2021/10/28 16:38:58;;;;;;;;;;;13.90;99.90;;;;;;5033009;28;19925;-70
2021/10/28 16:41:24;;;;;;;;;;;13.80;99.90;;;;;;5033219;28;19936;-70
2021/10/28 16:43:51;;;;;;;;;;;13.80;99.90;;;;;;5033254;28;19936;-70
2021/10/28 16:46:20;;;;;;;;;;;13.80;99.90;;;;;;5033159;28;19935;-70
2021/10/28 16:48:46;;;;;;;;;;;13.80;99.90;;;;;;5032821;28;20280;-70
2021/10/28 16:51:13;;;;;;;;;;;13.70;99.90;;;;;;5033080;28;19929;-70
2021/10/28 16:53:40;;;;;;;;;;;13.70;99.90;;;;;;5043382;28;19924;-70
2021/10/28 16:56:07;;;;;;;;;;;13.70;99.90;;;;;;5094805;28;19931;-70
2021/10/28 16:58:34;;;;;;;;;;;13.70;99.90;;;;;;5094939;28;19953;-70
2021/10/28 17:01:01;;;;;;;;;;;13.70;99.90;;;;;;5094717;28;20355;-70
2021/10/28 17:03:29;;;;;;;;;;;13.70;99.90;;;;;;5094787;28;20416;-70
2021/10/28 17:05:56;;;;;;;;;;;13.70;99.90;;;;;;5097744;28;19924;-78
2021/10/28 17:08:23;;;;;;;;;;;13.60;99.90;;;;;;5098584;28;19924;-70
2021/10/28 17:10:50;;;;;;;;;;;13.70;99.90;;;;;;5098634;28;19924;-70
2021/10/28 17:13:17;;;;;;;;;;;13.70;99.90;;;;;;5098775;28;19924;-70
2021/10/28 17:15:44;;;;;;;;;;;13.60;99.90;;;;;;5098382;28;20352;-71
2021/10/28 17:18:11;;;;;;;;;;;13.70;99.90;;;;;;5098068;28;19935;-71
2021/10/28 17:20:39;;;;;;;;;;;13.70;99.90;;;;;;5098288;28;19923;-71
2021/10/28 17:23:09;;;;;;;;;;;13.60;99.90;;;;;;5098260;28;19930;-71
2021/10/28 17:25:39;;;;;;;;;;;13.60;99.90;;;;;;5098175;28;19924;-72
2021/10/28 17:28:06;;;;;;;;;;;13.60;99.90;;;;;;5098192;28;19924;-71
2021/10/28 17:30:32;;;;;;;;;;;13.60;99.90;;;;;;5098206;28;19934;-71
2021/10/28 17:32:59;;;;;;;;;;;13.60;99.90;;;;;;5098215;28;19954;-72
2021/10/28 17:35:26;;;;;;;;;;;13.60;99.90;;;;;;5098055;28;20362;-72
2021/10/28 17:37:54;;;;;;;;;;;13.60;99.90;;;;;;5097673;28;20364;-72
2021/10/28 17:40:23;;;;;;;;;;;13.60;99.90;;;;;;5097457;28;19934;-72
2021/10/28 17:42:52;;;;;;;;;;;13.60;99.90;;;;;;5097791;28;19925;-73
2021/10/28 17:45:21;;;;;;;;;;;13.60;99.90;;;;;;5098029;28;19963;-72
2021/10/28 17:47:47;;;;;;;;;;;13.60;99.90;;;;;;5097786;28;20276;-73
2021/10/28 17:50:14;;;;;;;;;;;13.60;99.90;;;;;;5097819;28;19924;-73
2021/10/28 17:52:42;;;;;;;;;;;13.60;99.90;;;;;;5097696;28;19924;-73
2021/10/28 17:55:10;;;;;;;;;;;13.60;99.90;;;;;;5097931;28;19928;-73
2021/10/28 17:57:37;;;;;;;;;;;13.60;99.90;;;;;;5097635;28;19924;-73
2021/10/28 18:00:05;;;;;;;;;;;13.60;99.90;;;;;;5097621;28;19993;-73
2021/10/28 18:02:32;;;;;;;;;;;13.60;99.90;;;;;;5097606;28;19924;-73
2021/10/28 18:04:59;;;;;;;;;;;13.60;99.90;;;;;;5097691;28;19924;-73
2021/10/28 18:07:26;;;;;;;;;;;13.50;99.90;;;;;;5097638;28;19924;-73
2021/10/28 18:09:53;;;;;;;;;;;13.50;99.90;;;;;;5097378;28;20279;-73
2021/10/28 18:12:21;;;;;;;;;;;13.60;99.90;;;;;;5097269;28;19928;-73
2021/10/28 18:14:48;;;;;;;;;;;13.60;99.90;;;;;;5097295;28;20011;-73
2021/10/28 18:17:18;;;;;;;;;;;13.50;99.90;;;;;;5097118;28;20224;-73
2021/10/28 18:19:44;;;;;;;;;;;13.60;99.90;;;;;;5097373;28;19924;-73
2021/10/28 18:22:12;;;;;;;;;;;13.50;99.90;;;;;;5097277;28;19924;-73
2021/10/28 18:24:39;;;;;;;;;;;13.60;99.90;;;;;;5097188;28;19928;-73
2021/10/28 18:27:07;;;;;;;;;;;13.50;99.90;;;;;;5097260;28;19942;-72
2021/10/28 18:29:35;;;;;;;;;;;13.60;99.90;;;;;;5097234;28;19958;-73
2021/10/28 18:32:02;;;;;;;;;;;13.60;99.90;;;;;;5096987;28;19935;-73
2021/10/28 18:34:29;;;;;;;;;;;13.50;99.90;;;;;;5096828;28;19936;-73
2021/10/28 18:36:56;;;;;;;;;;;13.50;99.90;;;;;;5096798;28;19931;-73
2021/10/28 18:39:23;;;;;;;;;;;13.50;99.90;;;;;;5096959;28;19931;-72
2021/10/28 18:41:50;;;;;;;;;;;13.50;99.90;;;;;;5096874;28;19928;-73
2021/10/28 18:44:18;;;;;;;;;;;13.50;99.90;;;;;;5096724;28;19924;-73
2021/10/28 18:46:47;;;;;;;;;;;13.60;99.90;;;;;;5096847;28;19967;-73
2021/10/28 18:49:14;;;;;;;;;;;13.60;99.90;;;;;;5096886;28;19925;-73
2021/10/28 18:51:43;;;;;;;;;;;13.60;99.90;;;;;;5096700;28;19924;-73
2021/10/28 18:54:11;;;;;;;;;;;13.50;99.90;;;;;;5096675;28;19924;-72
2021/10/28 18:56:38;;;;;;;;;;;13.50;99.90;;;;;;5096591;28;20014;-73
2021/10/28 18:59:05;;;;;;;;;;;13.50;99.90;;;;;;5096514;28;20264;-73
2021/10/28 19:01:32;;;;;;;;;;;13.50;99.90;;;;;;5096569;28;20310;-73
2021/10/28 19:04:00;;;;;;;;;;;13.50;99.90;;;;;;5096347;28;20466;-72
2021/10/28 19:06:27;;;;;;;;;;;13.50;99.90;;;;;;5096274;28;19934;-73
2021/10/28 19:08:53;;;;;;;;;;;13.60;99.90;;;;;;5096466;28;19924;-73
2021/10/28 19:11:24;;;;;;;;;;;13.50;99.90;;;;;;5096280;28;19928;-73
2021/10/28 19:13:51;;;;;;;;;;;13.50;99.90;;;;;;5096216;28;20030;-73
2021/10/28 19:16:18;;;;;;;;;;;13.60;99.90;;;;;;5096023;28;19971;-73
2021/10/28 19:18:45;;;;;;;;;;;13.60;99.90;;;;;;5095889;28;19925;-73
2021/10/28 19:21:13;;;;;;;;;;;13.60;99.90;;;;;;5096174;28;19924;-73
2021/10/28 19:23:40;;;;;;;;;;;13.60;99.90;;;;;;5095952;28;20080;-73
2021/10/28 19:26:07;;;;;;;;;;;13.60;99.90;;;;;;5095833;28;20015;-73
2021/10/28 19:28:34;;;;;;;;;;;13.60;99.90;;;;;;5095447;28;20275;-73
2021/10/28 19:31:03;;;;;;;;;;;13.60;99.90;;;;;;5096098;28;20264;-73
2021/10/28 19:33:38;;;;;;;;;;;13.60;99.90;;;;;;5095785;28;19928;-73
2021/10/28 19:36:08;;;;;;;;;;;13.60;99.90;;;;;;5095764;28;19994;-74
2021/10/28 19:38:47;;;;;;;;;;;13.60;99.90;;;;;;5096000;28;19932;-74
2021/10/28 19:41:37;;;;;;;;;;;13.60;99.90;;;;;;5095954;28;19960;-75
2021/10/28 19:46:48;;;;;;;;;;;13.60;99.90;;;;;;5095729;28;20026;-74
2021/10/28 19:49:15;;;;;;;;;;;13.60;99.90;;;;;;5095550;28;19924;-75
2021/10/28 19:51:43;;;;;;;;;;;13.60;99.90;;;;;;5095756;28;19974;-75
2021/10/28 19:54:13;;;;;;;;;;;13.60;99.90;;;;;;5095764;28;20244;-77
2021/10/28 19:56:41;;;;;;;;;;;13.60;99.90;;;;;;5095698;28;19982;-76
2021/10/28 19:59:11;;;;;;;;;;;13.60;99.90;;;;;;5095518;28;19924;-78
2021/10/28 20:01:43;;;;;;;;;;;13.60;99.90;;;;;;5095649;28;19924;-80
2021/10/28 20:07:15;;;;;;;;;;;13.60;99.90;;;;;;5033641;28;19921;-78
2021/10/28 20:20:49;;;;;;;;;;;13.60;99.90;;;;;;5033496;28;20020;-78
2021/10/28 20:23:15;;;;;;;;;;;13.50;99.90;;;;;;5033504;28;19935;-78
2021/10/28 20:25:44;;;;;;;;;;;13.60;99.90;;;;;;5033356;28;20385;-79
2021/10/28 20:28:12;;;;;;;;;;;13.50;99.90;;;;;;5033298;28;19937;-78
2021/10/28 20:30:49;;;;;;;;;;;13.50;99.90;;;;;;5033479;28;20532;-78
2021/10/28 20:33:17;;;;;;;;;;;13.50;99.90;;;;;;5033398;28;20267;-78
2021/10/28 20:38:33;;;;;;;;;;;13.50;99.90;;;;;;5062381;28;20259;-78
2021/10/28 20:41:02;;;;;;;;;;;13.50;99.90;;;;;;5098351;28;20454;-78
2021/10/28 20:43:29;;;;;;;;;;;13.50;99.90;;;;;;5099088;28;19924;-78
2021/10/28 20:45:55;;;;;;;;;;;13.50;99.90;;;;;;5099052;28;19928;-80
2021/10/28 20:48:22;;;;;;;;;;;13.50;99.90;;;;;;5099139;28;19924;-79
2021/10/28 20:50:51;;;;;;;;;;;13.50;99.90;;;;;;5098995;28;19942;-78
2021/10/28 20:53:18;;;;;;;;;;;13.50;99.90;;;;;;5098956;28;20391;-79
2021/10/28 20:55:45;;;;;;;;;;;13.50;99.90;;;;;;5098837;28;20247;-80
2021/10/28 20:58:14;;;;;;;;;;;13.50;99.90;;;;;;5098795;28;19924;-78
2021/10/28 21:00:41;;;;;;;;;;;13.50;99.90;;;;;;5098813;28;20345;-77
2021/10/28 21:03:08;;;;;;;;;;;13.50;99.90;;;;;;5099000;28;19924;-78
2021/10/28 21:05:34;;;;;;;;;;;13.50;99.90;;;;;;5098831;28;20332;-77
2021/10/28 21:08:01;;;;;;;;;;;13.50;99.90;;;;;;5098734;28;19938;-80
2021/10/28 21:10:28;;;;;;;;;;;13.50;99.90;;;;;;5098634;28;19942;-78
2021/10/28 21:12:55;;;;;;;;;;;13.50;99.90;;;;;;5098553;28;19924;-78
2021/10/28 21:15:24;;;;;;;;;;;13.50;99.90;;;;;;5098683;28;20256;-78
2021/10/28 21:17:51;;;;;;;;;;;13.50;99.90;;;;;;5098213;28;19928;-78
2021/10/28 21:20:18;;;;;;;;;;;13.50;99.90;;;;;;5098564;28;19924;-79
2021/10/28 21:22:44;;;;;;;;;;;13.50;99.90;;;;;;5098371;28;19924;-80
2021/10/28 21:25:12;;;;;;;;;;;13.40;99.90;;;;;;5098235;28;19934;-78
2021/10/28 21:27:39;;;;;;;;;;;13.40;99.90;;;;;;5098493;28;19924;-78
2021/10/28 21:30:07;;;;;;;;;;;13.40;99.90;;;;;;5098253;28;19930;-78
2021/10/28 21:32:36;;;;;;;;;;;13.40;99.90;;;;;;5098464;28;19977;-78
2021/10/28 21:35:03;;;;;;;;;;;13.40;99.90;;;;;;5098381;28;19924;-78
2021/10/28 21:37:30;;;;;;;;;;;13.30;99.90;;;;;;5098185;28;19924;-78
2021/10/28 21:39:57;;;;;;;;;;;13.30;99.90;;;;;;5097934;28;19935;-78
2021/10/28 21:42:24;;;;;;;;;;;13.30;99.90;;;;;;5097960;28;19928;-78
2021/10/28 21:44:54;;;;;;;;;;;13.20;99.90;;;;;;5098144;28;19934;-78
2021/10/28 21:47:21;;;;;;;;;;;13.20;99.90;;;;;;5098060;28;19978;-77
2021/10/28 21:49:50;;;;;;;;;;;13.20;99.90;;;;;;5097831;28;19928;-77
2021/10/28 21:52:20;;;;;;;;;;;13.10;99.90;;;;;;5097645;28;19989;-77
2021/10/28 21:54:56;;;;;;;;;;;13.10;99.90;;;;;;5097784;28;20414;-77
2021/10/28 21:57:27;;;;;;;;;;;13.10;99.90;;;;;;5097727;28;19924;-77
2021/10/28 22:00:18;;;;;;;;;;;13.00;99.90;;;;;;5097881;28;19935;-76
2021/10/28 22:24:51;;;;;;;;;;;12.90;99.90;;;;;;5133379;28;19935;-78
2021/10/28 22:27:18;;;;;;;;;;;12.90;99.90;;;;;;5133384;27;20386;-78
2021/10/28 22:29:45;;;;;;;;;;;12.90;99.90;;;;;;5133172;27;19973;-78
2021/10/28 22:32:12;;;;;;;;;;;12.90;99.90;;;;;;5133224;27;19966;-77
2021/10/28 22:34:40;;;;;;;;;;;12.90;99.90;;;;;;5133202;27;19981;-78
2021/10/28 22:37:20;;;;;;;;;;;12.90;99.90;;;;;;5133057;27;19924;-78
2021/10/28 22:39:55;;;;;;;;;;;12.90;99.90;;;;;;5132982;27;20008;-78
2021/10/28 22:42:21;;;;;;;;;;;12.90;99.90;;;;;;5132915;27;19967;-79
2021/10/28 22:44:49;;;;;;;;;;;12.90;99.90;;;;;;5132860;27;20398;-78
2021/10/28 22:47:15;;;;;;;;;;;12.90;99.90;;;;;;5133119;27;19974;-78